createdAt,value
2023-04-28T00:00:44.857Z,4.14
2023-04-28T00:05:47.620Z,4.34
2023-04-28T00:10:49.386Z,4.07
2023-04-28T00:15:53.116Z,4.24
2023-04-28T00:20:57.841Z,4.25
2023-04-28T00:25:59.556Z,4.33
2023-04-28T00:31:01.380Z,4.23
2023-04-28T00:36:03.345Z,3.99
2023-04-28T00:41:06.727Z,3.75
2023-04-28T00:46:08.475Z,3.96
2023-04-28T00:51:10.432Z,3.98
2023-04-28T00:56:12.807Z,4.05
2023-04-28T01:01:14.633Z,3.88
2023-04-28T01:06:17.260Z,3.59
2023-04-28T01:11:19.471Z,3.47
2023-04-28T01:16:40.821Z,3.56
2023-04-28T01:21:43.318Z,3.65
2023-04-28T01:27:00.052Z,3.70
2023-04-28T01:32:03.078Z,3.80
2023-04-28T01:37:04.881Z,3.93
2023-04-28T01:42:06.877Z,3.78
2023-04-28T01:47:08.673Z,3.81
2023-04-28T01:52:10.567Z,3.83
2023-04-28T01:57:12.235Z,3.89
2023-04-28T02:02:14.428Z,3.73
2023-04-28T02:07:17.293Z,3.61
2023-04-28T02:12:19.016Z,3.70
2023-04-28T02:17:21.080Z,3.70
2023-04-28T02:22:23.393Z,3.69
2023-04-28T02:27:25.166Z,3.79
2023-04-28T02:32:26.885Z,3.75
2023-04-28T02:37:28.562Z,3.78
2023-04-28T02:42:30.266Z,3.81
2023-04-28T02:47:31.982Z,3.85
2023-04-28T02:52:33.770Z,4.04
2023-04-28T02:57:35.634Z,3.86
2023-04-28T03:02:38.267Z,3.87
2023-04-28T03:07:40.044Z,4.00
2023-04-28T03:12:41.745Z,4.13
2023-04-28T03:17:44.037Z,4.39
2023-04-28T03:22:45.890Z,4.20
2023-04-28T03:27:47.555Z,4.02
2023-04-28T03:32:49.300Z,3.94
2023-04-28T03:37:51.136Z,4.04
2023-04-28T03:42:53.173Z,4.20
2023-04-28T03:48:02.257Z,4.03
2023-04-28T03:53:05.075Z,3.96
2023-04-28T03:58:07.865Z,4.08
2023-04-28T04:03:10.319Z,4.41
2023-04-28T04:08:12.252Z,4.37
2023-04-28T04:13:13.970Z,4.67
2023-04-28T04:18:18.375Z,4.95
2023-04-28T04:23:42.666Z,5.14
2023-04-28T04:28:44.386Z,5.18
2023-04-28T04:33:46.328Z,5.48
2023-04-28T04:38:48.548Z,5.55
2023-04-28T04:43:52.518Z,5.67
2023-04-28T04:48:55.270Z,5.62
2023-04-28T04:53:57.204Z,5.63
2023-04-28T04:58:59.255Z,5.81
2023-04-28T05:04:21.970Z,5.75
2023-04-28T05:09:24.530Z,5.95
2023-04-28T05:14:26.769Z,6.09
2023-04-28T05:19:28.776Z,6.12
2023-04-28T05:24:30.785Z,6.39
2023-04-28T05:29:32.961Z,6.50
2023-04-28T05:34:34.836Z,6.64
2023-04-28T05:39:36.591Z,6.55
2023-04-28T05:44:42.993Z,6.81
2023-04-28T05:49:53.106Z,7.01
2023-04-28T05:54:54.890Z,7.21
2023-04-28T05:59:56.744Z,7.30
2023-04-28T06:04:58.924Z,7.71
2023-04-28T06:10:01.212Z,8.31
2023-04-28T06:15:03.348Z,8.74
2023-04-28T06:20:06.685Z,9.21
2023-04-28T06:25:09.201Z,9.22
2023-04-28T06:30:22.020Z,9.21
2023-04-28T06:35:23.892Z,9.52
2023-04-28T06:40:25.560Z,9.44
2023-04-28T06:45:30.877Z,9.84
2023-04-28T06:50:32.538Z,9.98
2023-04-28T06:55:34.705Z,10.21
2023-04-28T07:00:36.493Z,10.32
2023-04-28T07:05:38.353Z,10.50
2023-04-28T07:10:40.038Z,10.76
2023-04-28T07:15:42.184Z,11.44
2023-04-28T07:20:43.802Z,11.80
2023-04-28T07:25:45.481Z,11.81
2023-04-28T07:30:47.148Z,11.89
2023-04-28T07:35:49.588Z,11.84
2023-04-28T07:45:54.091Z,12.48
2023-04-28T07:50:55.804Z,12.96
2023-04-28T07:55:57.508Z,12.98
2023-04-28T08:00:59.155Z,13.43
2023-04-28T08:06:01.227Z,13.52
2023-04-28T08:11:03.263Z,13.76
2023-04-28T08:16:05.661Z,14.02
2023-04-28T08:21:07.509Z,14.42
2023-04-28T08:26:09.349Z,14.32
2023-04-28T08:31:11.092Z,14.39
2023-04-28T08:36:14.846Z,14.44
2023-04-28T08:41:17.084Z,14.43
2023-04-28T08:46:22.300Z,14.54
2023-04-28T08:51:35.896Z,14.86
2023-04-28T08:56:38.975Z,14.99
2023-04-28T09:01:40.818Z,15.06
2023-04-28T09:06:42.547Z,15.67
2023-04-28T09:12:11.348Z,15.66
2023-04-28T09:17:14.653Z,15.71
2023-04-28T09:22:26.126Z,15.86
2023-04-28T09:27:29.184Z,16.13
2023-04-28T09:32:31.074Z,16.27
2023-04-28T09:37:34.077Z,16.27
2023-04-28T09:42:46.631Z,16.48
2023-04-28T09:47:48.732Z,16.29
2023-04-28T09:52:59.162Z,16.40
2023-04-28T09:58:06.082Z,16.28
2023-04-28T10:03:09.715Z,16.25
2023-04-28T10:08:12.064Z,16.25
2023-04-28T10:13:19.593Z,15.96
2023-04-28T10:18:23.224Z,15.79
2023-04-28T10:23:58.164Z,15.52
2023-04-28T10:28:59.933Z,15.04
2023-04-28T10:34:22.354Z,14.80
2023-04-28T10:39:24.120Z,14.72
2023-04-28T10:44:28.931Z,13.85
2023-04-28T10:49:57.832Z,13.47
2023-04-28T10:55:28.925Z,13.22
2023-04-28T11:00:30.979Z,13.01
2023-04-28T11:05:34.903Z,13.16
2023-04-28T11:11:10.265Z,13.08
2023-04-28T11:16:17.526Z,13.33
2023-04-28T11:21:20.662Z,13.31
2023-04-28T11:26:23.696Z,13.41
2023-04-28T11:31:26.460Z,13.67
2023-04-28T11:36:32.838Z,13.73
2023-04-28T11:41:36.396Z,13.48
2023-04-28T11:46:54.863Z,13.29
2023-04-28T11:52:00.000Z,13.33
2023-04-28T11:57:04.864Z,13.62
2023-04-28T12:02:07.730Z,13.68
2023-04-28T12:07:13.949Z,13.92
2023-04-28T12:12:40.193Z,14.11
2023-04-28T12:17:52.030Z,13.91
2023-04-28T12:22:53.903Z,13.76
2023-04-28T12:28:04.034Z,13.69
2023-04-28T12:33:05.976Z,14.04
2023-04-28T12:38:11.691Z,14.30
2023-04-28T12:43:13.569Z,13.95
2023-04-28T12:48:15.506Z,13.67
2023-04-28T12:53:17.154Z,13.71
2023-04-28T12:58:18.943Z,13.66
2023-04-28T13:03:21.538Z,13.62
2023-04-28T13:08:23.659Z,13.58
2023-04-28T13:13:25.931Z,13.65
2023-04-28T13:18:27.635Z,13.34
2023-04-28T13:23:29.354Z,13.15
2023-04-28T13:28:31.354Z,13.13
2023-04-28T13:33:33.056Z,12.98
2023-04-28T13:38:35.201Z,12.99
2023-04-28T13:43:37.354Z,13.07
2023-04-28T13:48:40.612Z,13.02
2023-04-28T13:53:42.415Z,12.74
2023-04-28T13:58:44.140Z,12.86
2023-04-28T14:03:46.112Z,12.70
2023-04-28T14:08:48.153Z,12.55
2023-04-28T14:13:50.088Z,12.55
2023-04-28T14:18:52.007Z,12.20
2023-04-28T14:23:53.936Z,12.30
2023-04-28T14:28:55.996Z,12.53
2023-04-28T14:33:57.871Z,12.58
2023-04-28T14:39:00.002Z,12.65
2023-04-28T14:44:01.749Z,12.76
2023-04-28T14:49:03.566Z,12.96
2023-04-28T14:54:05.282Z,12.96
2023-04-28T14:59:07.096Z,12.81
2023-04-28T15:04:10.072Z,12.93
2023-04-28T15:09:12.165Z,13.00
2023-04-28T15:14:14.016Z,13.05
2023-04-28T15:19:15.783Z,13.12
2023-04-28T15:24:20.856Z,12.97
2023-04-28T15:29:22.726Z,12.94
2023-04-28T15:34:24.536Z,13.02
2023-04-28T15:39:28.362Z,13.06
2023-04-28T15:44:30.758Z,13.27
2023-04-28T15:49:32.817Z,13.01
2023-04-28T15:54:34.634Z,12.97
2023-04-28T15:59:36.680Z,13.02
2023-04-28T16:04:38.893Z,13.11
2023-04-28T16:09:40.899Z,13.00
2023-04-28T16:14:43.069Z,12.76
2023-04-28T16:19:44.863Z,12.84
2023-04-28T16:24:47.446Z,12.65
2023-04-28T16:29:49.254Z,12.68
2023-04-28T16:34:51.723Z,12.50
2023-04-28T16:39:53.781Z,12.52
2023-04-28T16:44:55.838Z,12.34
2023-04-28T16:49:57.824Z,12.30
2023-04-28T16:55:00.519Z,12.25
2023-04-28T17:00:02.335Z,12.28
2023-04-28T17:05:04.328Z,12.32
2023-04-28T17:10:07.168Z,12.46
2023-04-28T17:15:09.545Z,12.30
2023-04-28T17:20:12.070Z,12.13
2023-04-28T17:25:14.224Z,12.40
2023-04-28T17:30:16.151Z,12.33
2023-04-28T17:35:18.260Z,12.36
2023-04-28T17:40:23.999Z,12.30
2023-04-28T17:45:26.383Z,12.25
2023-04-28T17:50:28.659Z,12.25
2023-04-28T17:55:30.388Z,12.20
2023-04-28T18:00:32.252Z,12.20
2023-04-28T18:05:35.958Z,12.22
2023-04-28T18:10:37.816Z,12.25
2023-04-28T18:15:39.597Z,12.30
2023-04-28T18:20:42.923Z,12.09
2023-04-28T18:25:44.567Z,11.87
2023-04-28T18:30:46.168Z,11.80
2023-04-28T18:35:47.815Z,11.73
2023-04-28T18:40:49.470Z,11.79
2023-04-28T18:45:51.502Z,11.69
2023-04-28T18:50:53.851Z,12.02
2023-04-28T18:55:58.088Z,12.04
2023-04-28T19:00:59.795Z,12.15
2023-04-28T19:06:01.534Z,12.16
2023-04-28T19:11:03.220Z,12.05
2023-04-28T19:16:05.137Z,11.96
2023-04-28T19:21:07.712Z,11.86
2023-04-28T19:26:10.476Z,11.82
2023-04-28T19:31:12.250Z,11.78
2023-04-28T19:36:13.939Z,11.63
2023-04-28T19:41:15.666Z,11.43
2023-04-28T19:46:18.058Z,11.37
2023-04-28T19:51:19.712Z,11.32
2023-04-28T19:56:21.380Z,11.56
2023-04-28T20:01:23.525Z,11.67
2023-04-28T20:06:25.228Z,11.58
2023-04-28T20:11:26.922Z,11.51
2023-04-28T20:16:28.705Z,11.53
2023-04-28T20:21:31.543Z,11.68
2023-04-28T20:26:33.229Z,11.68
2023-04-28T20:31:35.427Z,11.75
2023-04-28T20:36:37.926Z,11.50
2023-04-28T20:41:42.754Z,11.50
2023-04-28T20:46:45.386Z,11.50
2023-04-28T20:51:47.871Z,11.34
2023-04-28T20:56:49.529Z,11.24
2023-04-28T21:01:51.202Z,10.89
2023-04-28T21:06:53.331Z,10.63
2023-04-28T21:11:55.275Z,10.52
2023-04-28T21:16:58.433Z,10.59
2023-04-28T21:22:00.220Z,10.68
2023-04-28T21:27:02.800Z,10.60
2023-04-28T21:32:04.905Z,10.79
2023-04-28T21:37:06.699Z,10.59
2023-04-28T21:42:21.537Z,10.47
2023-04-28T21:47:25.004Z,10.59
2023-04-28T21:52:26.853Z,10.60
2023-04-28T21:57:28.600Z,10.58
2023-04-28T22:02:41.348Z,10.57
2023-04-28T22:07:43.186Z,10.76
2023-04-28T22:12:45.008Z,10.75
2023-04-28T22:17:46.855Z,10.81
2023-04-28T22:22:48.483Z,11.05
2023-04-28T22:27:50.187Z,11.22
2023-04-28T22:32:52.071Z,10.97
2023-04-28T22:37:53.876Z,10.96
2023-04-28T22:42:55.517Z,10.81
2023-04-28T22:47:57.355Z,10.76
2023-04-28T22:52:59.092Z,11.07
2023-04-28T22:58:00.784Z,10.89
2023-04-28T23:03:04.627Z,10.78
2023-04-28T23:08:06.401Z,11.11
2023-04-28T23:13:08.036Z,10.81
2023-04-28T23:18:09.704Z,10.74
2023-04-28T23:23:11.585Z,10.53
2023-04-28T23:28:13.457Z,10.67
2023-04-28T23:33:15.126Z,10.43
2023-04-28T23:38:16.815Z,10.32
2023-04-28T23:43:18.478Z,10.16
2023-04-28T23:48:20.153Z,10.17
2023-04-28T23:53:21.819Z,9.98
2023-04-28T23:58:23.500Z,10.12
